Mercer, WI

9:11 PM CDT on July 27, 2016 (GMT -0500)
Pine Lake ,Town of Oma | | Change Station

Elev 1604 ft 46.25 °N, 90.13 °W | Updated 13 minutes ago

Rain
Rain
65.5 °F
Feels Like 65.5 °F
N
0.0
Wind Variable Wind from SSE
Gusts 0.0 mph

Today
High -- | Low -- °F
--% Chance of Precip.
Yesterday
High -- | Low -- °F
Precip. -- in
Pressure 30.01 in
Visibility 7.0 miles
Clouds Scattered Clouds 500 ft
Mostly Cloudy 6000 ft
Overcast 10000 ft
Dew Point 65 °F
Humidity 99%
Rainfall 0.85 in
Snow Depth Not available.
5:36 AM 8:35 PM
Last Quarter, 37% visible
METAR KD25 280155Z AUTO 11004KT 7SM RA SCT005 BKN060 OVC100 18/18 A3001 RMK AO2 P0012 T01770177
Pressure 30.01 in
Visibility 7.0 miles
Clouds Scattered Clouds 500 ft
Mostly Cloudy 6000 ft
Overcast 10000 ft
Dew Point 65 °F
Humidity 99%
Rainfall 0.85 in
Snow Depth Not available.
5:36 AM 8:35 PM
Last Quarter, 37% visible
METAR KD25 280155Z AUTO 11004KT 7SM RA SCT005 BKN060 OVC100 18/18 A3001 RMK AO2 P0012 T01770177

10-Day Weather Forecast

Almanac

Astronomy

Jul. 27, 2016 Rise Set
Actual Time
Civil Twilight
Nautical Twilight
Astronomical Twilight
Moon
Length of Visible Light
Length of Day
Tomorrow will be .
, % of the Moon is Illuminated

Today's Extremes

State Highs State Lows

Community

WunderPhotos

Upload Photos

1,928,012 photos uploaded!

WunderBlog® & News

Nearby

Air Quality

  Air Quality AQ Index Pollutant
Not available.

Snow Depth

Station Depth Elevation

Earthquake Activity

City Distance Mag. Time & Date
Minimum magnitude displayed is 2.5.

Coastal Water Temperatures

Place Temperature

Stations

Nearby Weather Stations

Station Location Temp. Windchill Dew Point Humidity Wind Precip. Elev Updated Type
                   

Watches & Warnings

There are currently no watches in effect.